createdAt,value
2018-07-16T00:00:32.653Z,46.90
2018-07-16T00:03:00.890Z,47.00
2018-07-16T00:05:29.070Z,47.00
2018-07-16T00:07:57.413Z,47.10
2018-07-16T00:10:25.927Z,47.20
2018-07-16T00:12:54.222Z,47.20
2018-07-16T00:15:22.479Z,47.10
2018-07-16T00:17:51.032Z,47.10
2018-07-16T00:20:19.273Z,47.50
2018-07-16T00:22:48.228Z,47.90
2018-07-16T00:25:17.192Z,48.10
2018-07-16T00:27:45.916Z,47.80
2018-07-16T00:30:14.375Z,48.00
2018-07-16T00:32:45.660Z,47.90
2018-07-16T00:35:15.783Z,47.90
2018-07-16T00:37:44.617Z,47.80
2018-07-16T00:40:13.802Z,48.00
2018-07-16T00:42:42.677Z,47.90
2018-07-16T00:45:11.701Z,47.70
2018-07-16T00:47:42.830Z,47.80
2018-07-16T00:50:12.622Z,47.50
2018-07-16T00:52:41.420Z,47.40
2018-07-16T00:55:11.992Z,46.80
2018-07-16T00:57:42.617Z,47.20
2018-07-16T01:00:14.982Z,47.70
2018-07-16T01:02:45.438Z,48.10
2018-07-16T01:05:15.123Z,49.30
2018-07-16T01:07:44.970Z,49.70
2018-07-16T01:10:13.562Z,49.90
2018-07-16T01:12:41.932Z,50.10
2018-07-16T01:15:10.493Z,50.70
2018-07-16T01:17:38.794Z,51.10
2018-07-16T01:20:07.975Z,50.40
2018-07-16T01:22:37.191Z,50.80
2018-07-16T01:25:05.557Z,51.10
2018-07-16T01:27:34.550Z,51.20
2018-07-16T01:30:03.761Z,51.40
2018-07-16T01:32:32.019Z,51.60
2018-07-16T01:35:00.395Z,52.40
2018-07-16T01:37:30.105Z,52.50
2018-07-16T01:39:58.968Z,52.10
2018-07-16T01:42:27.493Z,52.20
2018-07-16T01:44:56.165Z,51.60
2018-07-16T01:47:25.872Z,52.10
2018-07-16T01:49:55.548Z,53.00
2018-07-16T01:52:24.233Z,52.00
2018-07-16T01:54:52.663Z,52.90
2018-07-16T01:57:21.742Z,51.10
2018-07-16T01:59:50.906Z,51.90
2018-07-16T02:02:19.828Z,52.50
2018-07-16T02:04:48.071Z,53.30
2018-07-16T02:07:17.258Z,54.30
2018-07-16T02:09:46.190Z,55.10
2018-07-16T02:12:15.517Z,55.80
2018-07-16T02:14:44.685Z,56.40
2018-07-16T02:17:13.085Z,57.20
2018-07-16T02:19:42.158Z,57.60
2018-07-16T02:22:12.062Z,58.10
2018-07-16T02:24:40.359Z,58.50
2018-07-16T02:27:09.204Z,59.60
2018-07-16T02:29:37.452Z,60.50
2018-07-16T02:32:06.321Z,61.10
2018-07-16T02:34:34.937Z,60.90
2018-07-16T02:37:03.389Z,61.20
2018-07-16T02:39:32.182Z,61.10
2018-07-16T02:42:00.575Z,61.50
2018-07-16T02:44:29.068Z,61.90
2018-07-16T02:46:57.537Z,61.90
2018-07-16T02:49:26.616Z,62.20
2018-07-16T02:51:55.766Z,62.20
2018-07-16T02:54:24.099Z,62.70
2018-07-16T02:56:53.075Z,62.90
2018-07-16T02:59:22.123Z,62.70
2018-07-16T03:01:50.998Z,62.60
2018-07-16T03:04:20.058Z,63.00
2018-07-16T03:06:48.344Z,63.10
2018-07-16T03:09:16.639Z,63.90
2018-07-16T03:14:14.288Z,62.80
2018-07-16T03:16:42.841Z,63.20
2018-07-16T03:19:12.160Z,63.60
2018-07-16T03:21:41.408Z,63.90
2018-07-16T03:24:10.430Z,64.20
2018-07-16T03:26:39.353Z,64.30
2018-07-16T03:29:07.610Z,64.50
2018-07-16T03:31:35.869Z,67.10
2018-07-16T03:39:02.427Z,64.60
2018-07-16T03:41:30.755Z,65.00
2018-07-16T03:43:59.025Z,65.00
2018-07-16T03:46:27.917Z,65.50
2018-07-16T03:48:56.267Z,65.60
2018-07-16T03:51:24.612Z,65.40
2018-07-16T03:53:52.886Z,65.40
2018-07-16T03:56:21.640Z,65.50
2018-07-16T03:58:50.609Z,65.80
2018-07-16T04:01:19.001Z,66.60
2018-07-16T04:03:47.235Z,66.70
2018-07-16T04:06:15.487Z,66.50
2018-07-16T04:08:43.774Z,66.90
2018-07-16T04:11:12.133Z,66.60
2018-07-16T04:13:40.912Z,66.60
2018-07-16T04:18:37.804Z,66.60
2018-07-16T04:21:06.284Z,66.60
2018-07-16T04:23:34.904Z,66.70
2018-07-16T04:26:03.535Z,66.60
2018-07-16T04:28:31.933Z,66.60
2018-07-16T04:31:00.928Z,66.70
2018-07-16T04:33:29.266Z,66.70
2018-07-16T04:35:57.621Z,66.70
2018-07-16T04:38:26.884Z,66.70
2018-07-16T04:40:55.234Z,67.40
2018-07-16T04:43:24.242Z,67.70
2018-07-16T04:45:53.009Z,68.10
2018-07-16T04:50:50.484Z,66.90
2018-07-16T04:53:18.830Z,66.70
2018-07-16T04:55:47.155Z,66.00
2018-07-16T04:58:16.292Z,65.00
2018-07-16T05:00:44.563Z,64.40
2018-07-16T05:03:13.609Z,63.80
2018-07-16T05:05:41.887Z,64.00
2018-07-16T05:08:10.181Z,63.90
2018-07-16T05:10:38.575Z,63.40
2018-07-16T05:13:07.594Z,63.50
2018-07-16T05:15:36.958Z,63.90
2018-07-16T05:18:05.348Z,63.50
2018-07-16T05:20:35.031Z,62.50
2018-07-16T05:23:03.647Z,62.90
2018-07-16T05:25:32.268Z,63.00
2018-07-16T05:28:01.572Z,62.50
2018-07-16T05:30:30.867Z,62.70
2018-07-16T05:32:59.751Z,63.40
2018-07-16T05:35:29.437Z,63.40
2018-07-16T05:37:58.257Z,63.30
2018-07-16T05:40:27.004Z,63.00
2018-07-16T05:42:55.214Z,62.30
2018-07-16T05:45:23.565Z,62.40
2018-07-16T05:47:52.434Z,61.60
2018-07-16T05:52:49.519Z,61.80
2018-07-16T05:55:19.004Z,60.80
2018-07-16T06:00:15.788Z,60.30
2018-07-16T06:02:44.354Z,60.10
2018-07-16T06:05:12.906Z,60.00
2018-07-16T06:07:41.400Z,60.20
2018-07-16T06:12:38.206Z,59.00
2018-07-16T06:15:06.799Z,58.80
2018-07-16T06:17:35.181Z,58.50
2018-07-16T06:20:03.653Z,58.40
2018-07-16T06:22:32.579Z,57.40
2018-07-16T06:25:01.296Z,57.40
2018-07-16T06:27:29.521Z,56.10
2018-07-16T06:29:58.722Z,56.80
2018-07-16T06:32:27.098Z,56.60
2018-07-16T06:34:55.614Z,56.40
2018-07-16T06:37:23.937Z,55.50
2018-07-16T06:39:52.263Z,55.60
2018-07-16T06:42:20.894Z,54.90
2018-07-16T06:44:49.149Z,55.00
2018-07-16T06:47:17.417Z,55.30
2018-07-16T06:49:46.025Z,54.90
2018-07-16T06:52:15.297Z,54.90
2018-07-16T06:54:43.780Z,54.90
2018-07-16T06:57:12.025Z,53.50
2018-07-16T06:59:40.544Z,54.00
2018-07-16T07:02:09.812Z,53.70
2018-07-16T07:04:38.375Z,53.90
2018-07-16T07:07:06.818Z,53.60
2018-07-16T07:09:35.487Z,52.90
2018-07-16T07:12:03.785Z,53.00
2018-07-16T07:14:32.653Z,53.00
2018-07-16T07:17:01.247Z,52.70
2018-07-16T07:19:29.819Z,52.20
2018-07-16T07:21:58.713Z,52.00
2018-07-16T07:24:27.232Z,52.00
2018-07-16T07:26:55.570Z,51.30
2018-07-16T07:29:24.407Z,50.60
2018-07-16T07:31:53.154Z,50.50
2018-07-16T07:34:21.501Z,49.60
2018-07-16T07:36:49.813Z,48.90
2018-07-16T07:39:19.343Z,48.80
2018-07-16T07:41:47.707Z,48.80
2018-07-16T07:44:16.669Z,49.30
2018-07-16T07:46:45.029Z,50.00
2018-07-16T07:49:14.022Z,49.50
2018-07-16T07:51:42.551Z,49.80
2018-07-16T07:54:10.927Z,49.10
2018-07-16T07:56:39.169Z,48.70
2018-07-16T07:59:07.470Z,48.70
2018-07-16T08:01:35.769Z,48.70
2018-07-16T08:04:04.753Z,49.20
2018-07-16T08:06:33.770Z,48.80
2018-07-16T08:09:02.017Z,47.90
2018-07-16T08:11:30.563Z,46.90
2018-07-16T08:13:58.906Z,46.90
2018-07-16T08:16:28.166Z,46.00
2018-07-16T08:18:56.452Z,45.10
2018-07-16T08:21:25.207Z,45.00
2018-07-16T08:23:53.504Z,45.30
2018-07-16T08:26:23.101Z,44.80
2018-07-16T08:28:51.513Z,45.00
2018-07-16T08:31:19.979Z,45.00
2018-07-16T08:33:48.344Z,45.10
2018-07-16T08:36:17.402Z,44.10
2018-07-16T08:38:45.817Z,44.40
2018-07-16T08:41:14.150Z,43.60
2018-07-16T08:43:42.814Z,43.00
2018-07-16T08:46:11.361Z,41.40
2018-07-16T08:51:08.454Z,40.20
2018-07-16T08:53:37.356Z,40.30
2018-07-16T08:56:06.648Z,40.20
2018-07-16T08:58:35.711Z,39.50
2018-07-16T09:01:04.123Z,40.00
2018-07-16T09:03:33.804Z,39.40
2018-07-16T09:06:04.185Z,38.70
2018-07-16T09:08:33.610Z,37.50
2018-07-16T09:11:02.283Z,37.50
2018-07-16T09:13:31.137Z,39.20
2018-07-16T09:15:59.394Z,39.60
2018-07-16T09:18:29.125Z,39.80
2018-07-16T09:20:57.777Z,39.30
2018-07-16T09:23:26.492Z,39.40
2018-07-16T09:25:55.075Z,40.80
2018-07-16T09:28:23.451Z,40.70
2018-07-16T09:30:51.739Z,41.80
2018-07-16T09:33:20.375Z,41.70
2018-07-16T09:35:48.772Z,40.80
2018-07-16T09:38:17.816Z,40.90
2018-07-16T09:40:46.121Z,38.60
2018-07-16T09:43:15.169Z,39.10
2018-07-16T09:45:43.541Z,40.50
2018-07-16T09:48:11.842Z,41.60
2018-07-16T09:50:40.810Z,42.20
2018-07-16T09:53:10.106Z,40.70
2018-07-16T09:55:38.403Z,40.30
2018-07-16T09:58:07.034Z,40.70
2018-07-16T10:00:41.053Z,41.20
2018-07-16T10:03:09.484Z,40.70
2018-07-16T10:05:38.759Z,39.10
2018-07-16T10:08:07.476Z,37.50
2018-07-16T10:10:36.492Z,37.10
2018-07-16T10:13:06.145Z,36.40
2018-07-16T10:15:34.548Z,36.20
2018-07-16T10:18:03.021Z,36.80
2018-07-16T10:20:33.698Z,36.30
2018-07-16T10:23:02.339Z,35.70
2018-07-16T10:25:32.013Z,35.00
2018-07-16T10:28:00.237Z,35.60
2018-07-16T10:30:31.401Z,35.70
2018-07-16T10:33:01.312Z,34.90
2018-07-16T10:35:31.515Z,34.80
2018-07-16T10:38:00.421Z,35.30
2018-07-16T10:40:28.775Z,35.10
2018-07-16T10:42:57.007Z,34.50
2018-07-16T10:45:25.386Z,35.10
2018-07-16T10:47:54.938Z,33.60
2018-07-16T10:50:24.476Z,33.60
2018-07-16T10:52:52.773Z,33.70
2018-07-16T10:55:21.325Z,33.10
2018-07-16T10:57:49.633Z,32.00
2018-07-16T11:00:17.954Z,31.50
2018-07-16T11:02:46.252Z,32.10
2018-07-16T11:05:14.767Z,30.90
2018-07-16T11:07:43.350Z,30.80
2018-07-16T11:10:11.629Z,31.60
2018-07-16T11:12:40.693Z,30.90
2018-07-16T11:15:10.950Z,31.00
2018-07-16T11:17:39.266Z,30.30
2018-07-16T11:20:09.249Z,29.80
2018-07-16T11:22:38.952Z,29.40
2018-07-16T11:25:07.820Z,30.00
2018-07-16T11:27:37.259Z,30.00
2018-07-16T11:30:07.215Z,30.30
2018-07-16T11:32:35.521Z,29.00
2018-07-16T11:35:04.400Z,29.20
2018-07-16T11:37:32.896Z,29.10
2018-07-16T11:40:02.034Z,28.70
2018-07-16T11:42:31.113Z,28.50
2018-07-16T11:44:59.373Z,28.20
2018-07-16T11:47:28.534Z,28.70
2018-07-16T11:49:57.178Z,28.90
2018-07-16T11:52:25.491Z,28.60
2018-07-16T11:54:53.874Z,28.90
2018-07-16T11:57:22.269Z,29.30
2018-07-16T11:59:50.942Z,28.90
2018-07-16T12:02:19.293Z,29.60
2018-07-16T12:04:48.406Z,30.30
2018-07-16T12:07:16.629Z,30.60
2018-07-16T12:09:45.646Z,30.70
2018-07-16T12:12:14.430Z,30.20
2018-07-16T12:14:43.863Z,28.90
2018-07-16T12:17:12.324Z,28.40
2018-07-16T12:19:41.522Z,28.50
2018-07-16T12:22:10.960Z,28.70
2018-07-16T12:24:39.676Z,28.00
2018-07-16T12:27:07.981Z,27.60
2018-07-16T12:29:37.283Z,27.20
2018-07-16T12:32:05.765Z,27.20
2018-07-16T12:34:34.654Z,27.40
2018-07-16T12:37:03.107Z,27.90
2018-07-16T12:39:37.110Z,27.50
2018-07-16T12:42:06.058Z,27.30
2018-07-16T12:44:34.514Z,27.10
2018-07-16T12:47:02.990Z,26.60
2018-07-16T12:49:31.785Z,26.40
2018-07-16T12:52:00.501Z,25.90
2018-07-16T12:54:29.029Z,25.50
2018-07-16T12:56:57.712Z,25.30
2018-07-16T12:59:26.356Z,24.70
2018-07-16T13:01:54.754Z,24.20
2018-07-16T13:06:52.624Z,25.50
2018-07-16T13:09:21.249Z,25.70
2018-07-16T13:11:49.621Z,25.70
2018-07-16T13:14:18.161Z,26.20
2018-07-16T13:16:46.907Z,25.70
2018-07-16T13:19:15.290Z,26.20
2018-07-16T13:21:43.795Z,26.30
2018-07-16T13:26:41.112Z,25.90
2018-07-16T13:29:09.581Z,25.20
2018-07-16T13:31:38.830Z,24.50
2018-07-16T13:34:07.149Z,23.60
2018-07-16T13:36:35.467Z,22.90
2018-07-16T13:39:06.082Z,22.50
2018-07-16T13:41:34.381Z,23.00
2018-07-16T13:44:04.165Z,23.20
2018-07-16T13:46:32.655Z,23.10
2018-07-16T13:49:01.571Z,23.30
2018-07-16T13:51:31.416Z,23.20
2018-07-16T13:54:01.284Z,22.60
2018-07-16T13:56:30.108Z,22.40
2018-07-16T13:59:00.049Z,22.30
2018-07-16T14:01:28.326Z,21.60
2018-07-16T14:03:57.777Z,20.40
2018-07-16T14:06:26.314Z,21.20
2018-07-16T14:08:54.945Z,20.90
2018-07-16T14:11:23.343Z,20.20
2018-07-16T14:13:51.604Z,19.40
2018-07-16T14:16:20.440Z,19.10
2018-07-16T14:18:48.807Z,19.20
2018-07-16T14:21:18.029Z,19.40
2018-07-16T14:23:46.345Z,18.40
2018-07-16T14:26:14.971Z,17.30
2018-07-16T14:28:44.172Z,16.00
2018-07-16T14:31:13.114Z,15.60
2018-07-16T14:33:41.438Z,15.80
2018-07-16T14:38:41.914Z,16.30
2018-07-16T14:41:10.384Z,15.10
2018-07-16T14:43:44.672Z,14.60
2018-07-16T14:46:14.449Z,15.40
2018-07-16T14:48:43.793Z,14.50
2018-07-16T14:51:12.188Z,15.50
2018-07-16T14:53:40.599Z,16.10
2018-07-16T14:56:09.322Z,15.60
2018-07-16T14:58:38.621Z,15.20
2018-07-16T15:01:07.143Z,14.40
2018-07-16T15:03:35.821Z,14.50
2018-07-16T15:06:04.475Z,13.30
2018-07-16T15:08:32.753Z,13.50
2018-07-16T15:11:00.937Z,13.20
2018-07-16T15:13:29.774Z,13.50
2018-07-16T15:15:58.687Z,13.80
2018-07-16T15:18:27.066Z,13.80
2018-07-16T15:20:55.337Z,13.60
2018-07-16T15:23:24.094Z,13.30
2018-07-16T15:25:53.211Z,13.30
2018-07-16T15:28:22.069Z,14.40
2018-07-16T15:30:51.379Z,15.10
2018-07-16T15:33:19.835Z,14.50
2018-07-16T15:35:48.582Z,13.70
2018-07-16T15:38:17.232Z,13.70
2018-07-16T15:40:45.686Z,13.60
2018-07-16T15:43:14.148Z,15.20
2018-07-16T15:45:42.844Z,15.60
2018-07-16T15:48:11.882Z,16.20
2018-07-16T15:50:41.174Z,14.90
2018-07-16T15:53:09.409Z,13.60
2018-07-16T15:58:06.408Z,13.00
2018-07-16T16:00:35.325Z,12.90
2018-07-16T16:03:04.050Z,13.10
2018-07-16T16:05:32.890Z,13.60
2018-07-16T16:08:01.173Z,13.90
2018-07-16T16:10:29.825Z,14.20
2018-07-16T16:12:58.091Z,14.70
2018-07-16T16:17:55.357Z,14.00
2018-07-16T16:20:23.909Z,14.30
2018-07-16T16:22:52.519Z,15.10
2018-07-16T16:25:21.622Z,14.70
2018-07-16T16:27:51.137Z,14.70
2018-07-16T16:30:19.394Z,15.70
2018-07-16T16:32:48.222Z,16.40
2018-07-16T16:35:16.747Z,16.70
2018-07-16T16:37:45.027Z,16.00
2018-07-16T16:40:13.714Z,14.90
2018-07-16T16:42:42.360Z,15.60
2018-07-16T16:45:11.243Z,15.60
2018-07-16T16:47:39.908Z,16.20
2018-07-16T16:50:08.307Z,16.20
2018-07-16T16:52:36.850Z,15.00
2018-07-16T16:55:07.054Z,14.70
2018-07-16T16:57:36.257Z,15.30
2018-07-16T17:00:05.898Z,14.30
2018-07-16T17:02:34.869Z,14.80
2018-07-16T17:05:04.406Z,14.90
2018-07-16T17:07:33.685Z,15.80
2018-07-16T17:10:02.163Z,15.40
2018-07-16T17:12:30.840Z,15.90
2018-07-16T17:14:59.772Z,15.90
2018-07-16T17:17:28.137Z,16.30
2018-07-16T17:19:56.505Z,16.80
2018-07-16T17:22:24.854Z,16.90
2018-07-16T17:24:54.315Z,17.30
2018-07-16T17:27:24.205Z,16.90
2018-07-16T17:29:53.445Z,17.30
2018-07-16T17:32:22.552Z,16.80
2018-07-16T17:34:51.088Z,15.60
2018-07-16T17:37:20.590Z,15.90
2018-07-16T17:39:48.903Z,16.30
2018-07-16T17:42:17.115Z,16.60
2018-07-16T17:44:47.417Z,17.00
2018-07-16T17:47:17.537Z,17.60
2018-07-16T17:49:46.899Z,18.00
2018-07-16T17:52:15.212Z,19.30
2018-07-16T17:54:44.104Z,20.30
2018-07-16T17:57:12.784Z,20.90
2018-07-16T17:59:43.026Z,21.40
2018-07-16T18:02:13.228Z,21.50
2018-07-16T18:04:42.433Z,22.10
2018-07-16T18:07:16.736Z,22.40
2018-07-16T18:09:45.595Z,22.80
2018-07-16T18:12:15.704Z,23.60
2018-07-16T18:14:44.383Z,24.20
2018-07-16T18:17:13.158Z,24.70
2018-07-16T18:19:42.854Z,25.20
2018-07-16T18:22:11.329Z,25.70
2018-07-16T18:24:39.786Z,26.20
2018-07-16T18:27:09.393Z,26.50
2018-07-16T18:29:39.601Z,26.40
2018-07-16T18:32:08.546Z,26.90
2018-07-16T18:34:37.866Z,27.20
2018-07-16T18:37:06.380Z,27.70
2018-07-16T18:39:36.465Z,27.60
2018-07-16T18:42:07.242Z,28.10
2018-07-16T18:44:36.056Z,28.20
2018-07-16T18:47:04.971Z,28.60
2018-07-16T18:49:34.316Z,29.00
2018-07-16T18:52:03.636Z,29.10
2018-07-16T18:54:32.194Z,29.70
2018-07-16T18:57:00.623Z,30.00
2018-07-16T18:59:30.349Z,30.00
2018-07-16T19:01:59.034Z,30.50
2018-07-16T19:04:27.505Z,30.80
2018-07-16T19:07:00.386Z,31.20
2018-07-16T19:09:30.511Z,31.50
2018-07-16T19:11:59.010Z,31.30
2018-07-16T19:14:28.606Z,31.80
2018-07-16T19:16:58.739Z,32.20
2018-07-16T19:19:27.390Z,32.10
2018-07-16T19:21:57.463Z,32.30
2018-07-16T19:24:26.435Z,32.60
2018-07-16T19:26:56.122Z,33.10
2018-07-16T19:29:25.262Z,33.40
2018-07-16T19:31:54.126Z,34.10
2018-07-16T19:34:22.837Z,34.80
2018-07-16T19:36:51.375Z,34.70
2018-07-16T19:39:20.510Z,34.60
2018-07-16T19:41:49.768Z,34.70
2018-07-16T19:44:18.650Z,34.00
2018-07-16T19:46:48.290Z,34.60
2018-07-16T19:49:16.880Z,34.50
2018-07-16T19:51:45.733Z,35.00
2018-07-16T19:54:14.503Z,34.40
2018-07-16T19:56:43.582Z,34.40
2018-07-16T19:59:12.257Z,35.00
2018-07-16T20:01:48.028Z,35.80
2018-07-16T20:04:16.358Z,36.60
2018-07-16T20:06:45.128Z,36.80
2018-07-16T20:09:13.855Z,37.10
2018-07-16T20:11:42.408Z,37.50
2018-07-16T20:14:12.133Z,37.70
2018-07-16T20:16:41.941Z,38.30
2018-07-16T20:19:11.503Z,37.50
2018-07-16T20:21:39.868Z,37.60
2018-07-16T20:24:09.302Z,37.90
2018-07-16T20:29:06.859Z,38.70
2018-07-16T20:31:35.343Z,38.60
2018-07-16T20:34:03.989Z,38.70
2018-07-16T20:36:32.856Z,38.70
2018-07-16T20:39:01.477Z,39.30
2018-07-16T20:41:29.741Z,39.30
2018-07-16T20:43:59.340Z,38.80
2018-07-16T20:46:27.694Z,38.70
2018-07-16T20:48:56.207Z,38.70
2018-07-16T20:51:24.484Z,39.20
2018-07-16T20:53:52.866Z,39.80
2018-07-16T20:56:21.447Z,39.80
2018-07-16T20:58:50.003Z,40.30
2018-07-16T21:01:19.006Z,40.10
2018-07-16T21:03:47.574Z,40.20
2018-07-16T21:06:15.884Z,39.70
2018-07-16T21:08:44.197Z,40.30
2018-07-16T21:11:13.589Z,40.10
2018-07-16T21:13:41.868Z,40.50
2018-07-16T21:18:44.517Z,40.10
2018-07-16T21:21:15.844Z,41.10
2018-07-16T21:23:45.919Z,40.90
2018-07-16T21:26:15.969Z,41.10
2018-07-16T21:28:44.300Z,41.00
2018-07-16T21:31:12.505Z,41.30
2018-07-16T21:33:41.789Z,41.30
2018-07-16T21:36:11.863Z,41.50
2018-07-16T21:38:40.183Z,41.80
2018-07-16T21:41:09.477Z,41.80
2018-07-16T21:43:38.337Z,40.80
2018-07-16T21:46:06.853Z,41.20
2018-07-16T21:48:35.686Z,41.80
2018-07-16T21:51:04.253Z,41.20
2018-07-16T21:53:32.552Z,40.90
2018-07-16T21:56:00.861Z,41.10
2018-07-16T21:58:30.129Z,41.40
2018-07-16T22:00:58.435Z,41.40
2018-07-16T22:03:27.530Z,41.10
2018-07-16T22:05:55.807Z,41.60
2018-07-16T22:08:24.786Z,42.20
2018-07-16T22:10:53.703Z,42.40
2018-07-16T22:13:23.138Z,42.80
2018-07-16T22:15:51.541Z,42.90
2018-07-16T22:18:20.468Z,43.50
2018-07-16T22:20:48.699Z,43.60
2018-07-16T22:23:17.288Z,43.60
2018-07-16T22:25:45.555Z,43.60
2018-07-16T22:28:14.087Z,44.00
2018-07-16T22:30:43.077Z,43.70
2018-07-16T22:33:12.208Z,44.10
2018-07-16T22:35:40.732Z,44.30
2018-07-16T22:38:09.296Z,44.50
2018-07-16T22:40:37.617Z,44.80
2018-07-16T22:43:06.145Z,45.10
2018-07-16T22:45:34.385Z,45.20
2018-07-16T22:48:03.232Z,45.50
2018-07-16T22:50:31.746Z,45.70
2018-07-16T22:52:59.920Z,45.80
2018-07-16T22:55:28.446Z,45.60
2018-07-16T22:57:56.695Z,45.60
2018-07-16T23:00:25.000Z,45.50
2018-07-16T23:05:21.895Z,45.80
2018-07-16T23:07:51.164Z,45.80
2018-07-16T23:10:19.492Z,46.20
2018-07-16T23:12:47.889Z,46.10
2018-07-16T23:15:16.298Z,46.50
2018-07-16T23:17:44.936Z,46.40
2018-07-16T23:20:13.233Z,46.60
2018-07-16T23:22:52.736Z,46.80
2018-07-16T23:25:21.666Z,46.80
2018-07-16T23:27:56.129Z,47.00
2018-07-16T23:30:25.665Z,49.40
2018-07-16T23:32:53.936Z,48.00
2018-07-16T23:35:22.482Z,47.80
2018-07-16T23:37:52.524Z,47.90
2018-07-16T23:40:20.920Z,47.80
2018-07-16T23:42:52.177Z,48.20
2018-07-16T23:45:20.462Z,47.60
2018-07-16T23:50:19.039Z,48.30
2018-07-16T23:52:47.853Z,48.70
2018-07-16T23:55:17.068Z,48.80
2018-07-16T23:57:45.360Z,48.70
